sensor_id;sensor_type;location;lat;lon;timestamp;pressure;altitude;pressure_sealevel;temperature;humidity
7966;BME280;4028;43.272;26.932;2023-03-22T00:02:12;98873.31;;;9.32;100.00
7966;BME280;4028;43.272;26.932;2023-03-22T00:04:38;98875.66;;;9.35;100.00
7966;BME280;4028;43.272;26.932;2023-03-22T00:07:03;98872.63;;;9.30;100.00
7966;BME280;4028;43.272;26.932;2023-03-22T00:09:29;98859.56;;;9.29;100.00
7966;BME280;4028;43.272;26.932;2023-03-22T00:11:54;98879.28;;;9.34;100.00
7966;BME280;4028;43.272;26.932;2023-03-22T00:14:20;98875.66;;;9.35;100.00
7966;BME280;4028;43.272;26.932;2023-03-22T00:16:46;98884.28;;;9.37;100.00
7966;BME280;4028;43.272;26.932;2023-03-22T00:19:13;98878.47;;;9.24;100.00
7966;BME280;4028;43.272;26.932;2023-03-22T00:21:39;98896.69;;;9.18;100.00
7966;BME280;4028;43.272;26.932;2023-03-22T00:24:04;98884.72;;;9.23;100.00
7966;BME280;4028;43.272;26.932;2023-03-22T00:26:30;98877.63;;;9.24;100.00
7966;BME280;4028;43.272;26.932;2023-03-22T00:28:56;98880.69;;;9.29;100.00
7966;BME280;4028;43.272;26.932;2023-03-22T00:31:21;98887.47;;;9.31;100.00
7966;BME280;4028;43.272;26.932;2023-03-22T00:33:47;98882.75;;;9.35;100.00
7966;BME280;4028;43.272;26.932;2023-03-22T00:36:12;98884.28;;;9.37;100.00
7966;BME280;4028;43.272;26.932;2023-03-22T00:38:38;98878.03;;;9.38;100.00
7966;BME280;4028;43.272;26.932;2023-03-22T00:41:23;98879.69;;;9.40;100.00
7966;BME280;4028;43.272;26.932;2023-03-22T00:43:50;98874.25;;;9.41;100.00
7966;BME280;4028;43.272;26.932;2023-03-22T00:46:17;98874.13;;;9.43;100.00
7966;BME280;4028;43.272;26.932;2023-03-22T00:48:44;98877.59;;;9.43;100.00
7966;BME280;4028;43.272;26.932;2023-03-22T00:51:10;98872.00;;;9.46;100.00
7966;BME280;4028;43.272;26.932;2023-03-22T00:53:36;98874.13;;;9.43;100.00
7966;BME280;4028;43.272;26.932;2023-03-22T00:56:03;98882.06;;;9.43;100.00
7966;BME280;4028;43.272;26.932;2023-03-22T00:58:28;98879.53;;;9.41;100.00
7966;BME280;4028;43.272;26.932;2023-03-22T01:00:54;98872.91;;;9.37;100.00
7966;BME280;4028;43.272;26.932;2023-03-22T01:03:19;98877.63;;;9.33;100.00
7966;BME280;4028;43.272;26.932;2023-03-22T01:05:46;98878.03;;;9.38;100.00
7966;BME280;4028;43.272;26.932;2023-03-22T01:08:14;98877.31;;;9.36;100.00
7966;BME280;4028;43.272;26.932;2023-03-22T01:10:41;98881.25;;;9.32;100.00
7966;BME280;4028;43.272;26.932;2023-03-22T01:13:08;98881.91;;;9.34;100.00
7966;BME280;4028;43.272;26.932;2023-03-22T01:15:35;98874.56;;;9.38;100.00
7966;BME280;4028;43.272;26.932;2023-03-22T01:18:01;98871.22;;;9.36;100.00
7966;BME280;4028;43.272;26.932;2023-03-22T01:20:27;98866.66;;;9.28;100.00
7966;BME280;4028;43.272;26.932;2023-03-22T01:22:52;98869.16;;;9.20;100.00
7966;BME280;4028;43.272;26.932;2023-03-22T01:25:18;98878.59;;;9.32;100.00
7966;BME280;4028;43.272;26.932;2023-03-22T01:27:44;98870.38;;;9.35;100.00
7966;BME280;4028;43.272;26.932;2023-03-22T01:30:10;98870.81;;;9.31;100.00
7966;BME280;4028;43.272;26.932;2023-03-22T01:32:36;98880.44;;;9.22;100.00
7966;BME280;4028;43.272;26.932;2023-03-22T01:35:03;98873.19;;;9.24;100.00
7966;BME280;4028;43.272;26.932;2023-03-22T01:37:29;98882.50;;;9.19;100.00
7966;BME280;4028;43.272;26.932;2023-03-22T01:39:54;98875.00;;;9.14;100.00
7966;BME280;4028;43.272;26.932;2023-03-22T01:42:21;98883.75;;;9.24;100.00
7966;BME280;4028;43.272;26.932;2023-03-22T01:47:47;98879.16;;;9.26;100.00
7966;BME280;4028;43.272;26.932;2023-03-22T01:50:16;98891.50;;;9.35;100.00
7966;BME280;4028;43.272;26.932;2023-03-22T01:52:43;98890.41;;;9.38;100.00
7966;BME280;4028;43.272;26.932;2023-03-22T01:55:09;98886.22;;;9.35;100.00
7966;BME280;4028;43.272;26.932;2023-03-22T01:57:36;98887.94;;;9.27;100.00
7966;BME280;4028;43.272;26.932;2023-03-22T02:00:04;98866.94;;;9.25;100.00
7966;BME280;4028;43.272;26.932;2023-03-22T02:02:34;98882.66;;;9.27;100.00
7966;BME280;4028;43.272;26.932;2023-03-22T02:05:00;98882.50;;;9.28;100.00
7966;BME280;4028;43.272;26.932;2023-03-22T02:07:26;98891.41;;;9.27;100.00
7966;BME280;4028;43.272;26.932;2023-03-22T02:09:52;98882.50;;;9.28;100.00
7966;BME280;4028;43.272;26.932;2023-03-22T02:40:39;98908.09;;;9.08;100.00
7966;BME280;4028;43.272;26.932;2023-03-22T02:43:14;98908.78;;;9.01;100.00
7966;BME280;4028;43.272;26.932;2023-03-22T02:49:05;98909.75;;;9.00;100.00
7966;BME280;4028;43.272;26.932;2023-03-22T02:51:54;98914.50;;;9.06;100.00
7966;BME280;4028;43.272;26.932;2023-03-22T02:54:40;98912.94;;;9.03;100.00
7966;BME280;4028;43.272;26.932;2023-03-22T02:57:21;98919.75;;;8.96;100.00
7966;BME280;4028;43.272;26.932;2023-03-22T02:59:52;98918.38;;;9.02;100.00
7966;BME280;4028;43.272;26.932;2023-03-22T03:02:20;98920.59;;;8.97;100.00
7966;BME280;4028;43.272;26.932;2023-03-22T03:04:48;98921.00;;;9.02;100.00
7966;BME280;4028;43.272;26.932;2023-03-22T03:07:20;98918.06;;;9.05;100.00
7966;BME280;4028;43.272;26.932;2023-03-22T03:09:47;98913.78;;;9.04;100.00
7966;BME280;4028;43.272;26.932;2023-03-22T03:12:19;98915.59;;;9.03;100.00
7966;BME280;4028;43.272;26.932;2023-03-22T03:14:45;98913.50;;;9.07;100.00
7966;BME280;4028;43.272;26.932;2023-03-22T03:25:32;98902.22;;;9.24;100.00
7966;BME280;4028;43.272;26.932;2023-03-22T03:28:44;98906.41;;;9.07;100.00
7966;BME280;4028;43.272;26.932;2023-03-22T03:31:23;98901.56;;;9.03;100.00
7966;BME280;4028;43.272;26.932;2023-03-22T03:36:33;98913.09;;;9.02;100.00
7966;BME280;4028;43.272;26.932;2023-03-22T03:39:04;98909.31;;;8.95;100.00
7966;BME280;4028;43.272;26.932;2023-03-22T03:41:33;98903.53;;;8.91;100.00
7966;BME280;4028;43.272;26.932;2023-03-22T03:43:59;98901.28;;;8.87;100.00
7966;BME280;4028;43.272;26.932;2023-03-22T03:46:25;98911.44;;;9.01;100.00
7966;BME280;4028;43.272;26.932;2023-03-22T03:48:54;98909.31;;;8.95;100.00
7966;BME280;4028;43.272;26.932;2023-03-22T03:51:21;98911.84;;;8.96;100.00
7966;BME280;4028;43.272;26.932;2023-03-22T03:53:47;98913.66;;;8.96;100.00
7966;BME280;4028;43.272;26.932;2023-03-22T03:56:12;98916.56;;;9.02;100.00
7966;BME280;4028;43.272;26.932;2023-03-22T03:58:38;98911.97;;;9.04;100.00
7966;BME280;4028;43.272;26.932;2023-03-22T04:01:03;98910.47;;;9.02;100.00
7966;BME280;4028;43.272;26.932;2023-03-22T04:03:30;98915.03;;;9.00;100.00
7966;BME280;4028;43.272;26.932;2023-03-22T04:05:56;98911.28;;;9.02;100.00
7966;BME280;4028;43.272;26.932;2023-03-22T04:08:21;98923.09;;;9.08;100.00
7966;BME280;4028;43.272;26.932;2023-03-22T04:10:50;98923.09;;;8.98;100.00
7966;BME280;4028;43.272;26.932;2023-03-22T04:13:17;98924.47;;;8.93;100.00
7966;BME280;4028;43.272;26.932;2023-03-22T04:15:45;98925.88;;;8.97;100.00
7966;BME280;4028;43.272;26.932;2023-03-22T04:18:11;98913.78;;;9.04;100.00
7966;BME280;4028;43.272;26.932;2023-03-22T04:20:36;98918.38;;;9.02;100.00
7966;BME280;4028;43.272;26.932;2023-03-22T04:23:06;98918.50;;;9.10;100.00
7966;BME280;4028;43.272;26.932;2023-03-22T04:25:35;98917.66;;;9.09;100.00
7966;BME280;4028;43.272;26.932;2023-03-22T04:28:03;98922.81;;;9.11;100.00
7966;BME280;4028;43.272;26.932;2023-03-22T04:30:29;98918.63;;;9.08;100.00
7966;BME280;4028;43.272;26.932;2023-03-22T04:32:55;98925.47;;;9.01;100.00
7966;BME280;4028;43.272;26.932;2023-03-22T04:35:21;98926.00;;;9.05;100.00
7966;BME280;4028;43.272;26.932;2023-03-22T04:37:47;98923.50;;;9.03;100.00
7966;BME280;4028;43.272;26.932;2023-03-22T04:40:14;98909.06;;;8.98;100.00
7966;BME280;4028;43.272;26.932;2023-03-22T04:42:45;98918.50;;;9.00;100.00
7966;BME280;4028;43.272;26.932;2023-03-22T04:45:12;98923.66;;;9.02;100.00
7966;BME280;4028;43.272;26.932;2023-03-22T04:47:38;98925.56;;;9.00;100.00
7966;BME280;4028;43.272;26.932;2023-03-22T04:50:05;98921.56;;;8.96;100.00
7966;BME280;4028;43.272;26.932;2023-03-22T04:52:30;98927.94;;;9.03;100.00
7966;BME280;4028;43.272;26.932;2023-03-22T04:54:56;98922.66;;;9.03;100.00
7966;BME280;4028;43.272;26.932;2023-03-22T04:57:21;98921.69;;;9.04;100.00
7966;BME280;4028;43.272;26.932;2023-03-22T04:59:47;98928.22;;;9.00;100.00
7966;BME280;4028;43.272;26.932;2023-03-22T05:02:12;98925.88;;;8.97;100.00
7966;BME280;4028;43.272;26.932;2023-03-22T05:04:37;98933.50;;;9.00;100.00
7966;BME280;4028;43.272;26.932;2023-03-22T05:07:03;98933.78;;;9.06;100.00
7966;BME280;4028;43.272;26.932;2023-03-22T05:09:28;98937.94;;;8.99;100.00
7966;BME280;4028;43.272;26.932;2023-03-22T05:11:54;98950.16;;;9.00;100.00
7966;BME280;4028;43.272;26.932;2023-03-22T05:14:20;98955.03;;;9.05;100.00
7966;BME280;4028;43.272;26.932;2023-03-22T05:16:45;98947.69;;;9.18;100.00
7966;BME280;4028;43.272;26.932;2023-03-22T05:19:10;98952.94;;;9.18;100.00
7966;BME280;4028;43.272;26.932;2023-03-22T05:21:39;98961.00;;;9.26;100.00
7966;BME280;4028;43.272;26.932;2023-03-22T05:24:07;98961.03;;;9.17;100.00
7966;BME280;4028;43.272;26.932;2023-03-22T05:26:32;98944.47;;;9.05;100.00
7966;BME280;4028;43.272;26.932;2023-03-22T05:29:02;98969.22;;;9.14;100.00
7966;BME280;4028;43.272;26.932;2023-03-22T05:31:28;98966.41;;;9.15;100.00
7966;BME280;4028;43.272;26.932;2023-03-22T05:33:53;98974.34;;;9.15;100.00
7966;BME280;4028;43.272;26.932;2023-03-22T05:36:20;98983.09;;;9.16;100.00
7966;BME280;4028;43.272;26.932;2023-03-22T05:38:47;98983.22;;;9.14;100.00
7966;BME280;4028;43.272;26.932;2023-03-22T05:41:13;98979.50;;;9.17;100.00
7966;BME280;4028;43.272;26.932;2023-03-22T05:43:39;98993.22;;;9.10;100.00
7966;BME280;4028;43.272;26.932;2023-03-22T05:46:06;98989.50;;;9.13;100.00
7966;BME280;4028;43.272;26.932;2023-03-22T05:48:33;98989.09;;;9.18;100.00
7966;BME280;4028;43.272;26.932;2023-03-22T05:50:59;98981.31;;;9.06;100.00
7966;BME280;4028;43.272;26.932;2023-03-22T05:53:24;98995.34;;;9.07;100.00
7966;BME280;4028;43.272;26.932;2023-03-22T05:55:50;98998.50;;;9.10;100.00
7966;BME280;4028;43.272;26.932;2023-03-22T05:58:17;99001.28;;;9.09;100.00
7966;BME280;4028;43.272;26.932;2023-03-22T06:00:44;99006.44;;;9.20;100.00
7966;BME280;4028;43.272;26.932;2023-03-22T06:03:09;99002.28;;;9.37;100.00
7966;BME280;4028;43.272;26.932;2023-03-22T06:05:35;99008.50;;;9.26;100.00
7966;BME280;4028;43.272;26.932;2023-03-22T06:08:02;99016.00;;;9.21;100.00
7966;BME280;4028;43.272;26.932;2023-03-22T06:10:27;99005.19;;;9.24;100.00
7966;BME280;4028;43.272;26.932;2023-03-22T06:12:53;99013.78;;;9.26;100.00
7966;BME280;4028;43.272;26.932;2023-03-22T06:15:20;99020.34;;;9.22;100.00
7966;BME280;4028;43.272;26.932;2023-03-22T06:17:45;99021.28;;;9.21;100.00
7966;BME280;4028;43.272;26.932;2023-03-22T06:20:12;99014.78;;;9.35;100.00
7966;BME280;4028;43.272;26.932;2023-03-22T06:22:38;99017.84;;;9.30;100.00
7966;BME280;4028;43.272;26.932;2023-03-22T06:25:08;99010.31;;;9.35;100.00
7966;BME280;4028;43.272;26.932;2023-03-22T06:27:34;99011.88;;;9.38;100.00
7966;BME280;4028;43.272;26.932;2023-03-22T06:29:59;99019.91;;;9.56;100.00
7966;BME280;4028;43.272;26.932;2023-03-22T06:32:25;99019.91;;;9.66;100.00
7966;BME280;4028;43.272;26.932;2023-03-22T06:34:54;99024.34;;;9.75;100.00
7966;BME280;4028;43.272;26.932;2023-03-22T06:37:21;99019.31;;;9.81;100.00
7966;BME280;4028;43.272;26.932;2023-03-22T06:39:47;99026.81;;;9.86;100.00
7966;BME280;4028;43.272;26.932;2023-03-22T06:42:13;99030.13;;;9.98;100.00
7966;BME280;4028;43.272;26.932;2023-03-22T06:44:39;99031.50;;;10.02;100.00
7966;BME280;4028;43.272;26.932;2023-03-22T06:47:08;99024.31;;;9.94;100.00
7966;BME280;4028;43.272;26.932;2023-03-22T06:49:34;99035.88;;;9.93;100.00
7966;BME280;4028;43.272;26.932;2023-03-22T06:52:00;99038.06;;;9.98;100.00
7966;BME280;4028;43.272;26.932;2023-03-22T06:54:25;99042.09;;;10.02;100.00
7966;BME280;4028;43.272;26.932;2023-03-22T06:56:51;99044.31;;;9.97;100.00
7966;BME280;4028;43.272;26.932;2023-03-22T06:59:16;99046.88;;;9.88;100.00
7966;BME280;4028;43.272;26.932;2023-03-22T07:01:42;99054.09;;;9.86;100.00
7966;BME280;4028;43.272;26.932;2023-03-22T07:04:07;99047.69;;;9.99;100.00
7966;BME280;4028;43.272;26.932;2023-03-22T07:06:33;99046.53;;;10.01;100.00
7966;BME280;4028;43.272;26.932;2023-03-22T07:08:58;99050.03;;;10.02;100.00
7966;BME280;4028;43.272;26.932;2023-03-22T07:11:24;99040.28;;;10.02;100.00
7966;BME280;4028;43.272;26.932;2023-03-22T07:13:52;99059.59;;;10.12;100.00
7966;BME280;4028;43.272;26.932;2023-03-22T07:16:17;99060.16;;;10.16;100.00
7966;BME280;4028;43.272;26.932;2023-03-22T07:18:43;99055.72;;;10.07;100.00
7966;BME280;4028;43.272;26.932;2023-03-22T07:21:08;99059.50;;;10.04;100.00
7966;BME280;4028;43.272;26.932;2023-03-22T07:23:34;99051.56;;;10.04;100.00
7966;BME280;4028;43.272;26.932;2023-03-22T07:26:00;99060.03;;;10.08;100.00
7966;BME280;4028;43.272;26.932;2023-03-22T07:28:25;99060.88;;;10.08;100.00
7966;BME280;4028;43.272;26.932;2023-03-22T07:31:03;99064.63;;;10.06;100.00
7966;BME280;4028;43.272;26.932;2023-03-22T07:33:29;99059.19;;;10.07;100.00
7966;BME280;4028;43.272;26.932;2023-03-22T07:35:54;99063.78;;;10.05;100.00
7966;BME280;4028;43.272;26.932;2023-03-22T07:38:20;99066.41;;;10.15;100.00
7966;BME280;4028;43.272;26.932;2023-03-22T07:40:45;99069.75;;;10.17;100.00
7966;BME280;4028;43.272;26.932;2023-03-22T07:43:10;99064.31;;;10.28;100.00
7966;BME280;4028;43.272;26.932;2023-03-22T07:45:37;99056.69;;;10.25;100.00
7966;BME280;4028;43.272;26.932;2023-03-22T07:48:05;99066.41;;;10.34;100.00
7966;BME280;4028;43.272;26.932;2023-03-22T07:50:31;99065.13;;;10.38;100.00
7966;BME280;4028;43.272;26.932;2023-03-22T07:52:57;99068.06;;;10.35;100.00
7966;BME280;4028;43.272;26.932;2023-03-22T07:55:22;99055.69;;;10.26;100.00
7966;BME280;4028;43.272;26.932;2023-03-22T07:57:48;99066.41;;;10.34;100.00
7966;BME280;4028;43.272;26.932;2023-03-22T08:00:14;99070.16;;;10.32;100.00
7966;BME280;4028;43.272;26.932;2023-03-22T08:02:40;99072.13;;;10.30;100.00
7966;BME280;4028;43.272;26.932;2023-03-22T08:05:05;99088.00;;;10.30;100.00
7966;BME280;4028;43.272;26.932;2023-03-22T08:07:31;99095.19;;;10.18;100.00
7966;BME280;4028;43.272;26.932;2023-03-22T08:09:57;99091.91;;;10.06;100.00
7966;BME280;4028;43.272;26.932;2023-03-22T08:12:23;99088.41;;;10.06;100.00
7966;BME280;4028;43.272;26.932;2023-03-22T08:14:48;99093.97;;;10.12;100.00
7966;BME280;4028;43.272;26.932;2023-03-22T08:17:18;99098.31;;;10.13;100.00
7966;BME280;4028;43.272;26.932;2023-03-22T08:19:44;99093.44;;;9.99;100.00
7966;BME280;4028;43.272;26.932;2023-03-22T08:22:10;99100.97;;;10.04;100.00
7966;BME280;4028;43.272;26.932;2023-03-22T08:24:36;99099.41;;;10.11;100.00
7966;BME280;4028;43.272;26.932;2023-03-22T08:27:02;99099.00;;;9.96;100.00
7966;BME280;4028;43.272;26.932;2023-03-22T08:29:28;99103.03;;;9.90;100.00
7966;BME280;4028;43.272;26.932;2023-03-22T08:31:54;99102.22;;;10.00;100.00
7966;BME280;4028;43.272;26.932;2023-03-22T08:34:20;99100.25;;;10.02;100.00
7966;BME280;4028;43.272;26.932;2023-03-22T08:36:46;99100.66;;;10.07;100.00
7966;BME280;4028;43.272;26.932;2023-03-22T08:39:11;99107.19;;;10.12;100.00
7966;BME280;4028;43.272;26.932;2023-03-22T08:41:38;99112.88;;;10.18;100.00
7966;BME280;4028;43.272;26.932;2023-03-22T08:44:03;99113.88;;;10.26;100.00
7966;BME280;4028;43.272;26.932;2023-03-22T08:46:29;99114.44;;;10.30;100.00
7966;BME280;4028;43.272;26.932;2023-03-22T08:48:55;99108.84;;;10.33;100.00
7966;BME280;4028;43.272;26.932;2023-03-22T08:51:24;99114.28;;;10.31;100.00
7966;BME280;4028;43.272;26.932;2023-03-22T08:53:50;99117.09;;;10.30;100.00
7966;BME280;4028;43.272;26.932;2023-03-22T08:56:16;99117.50;;;10.35;100.00
7966;BME280;4028;43.272;26.932;2023-03-22T08:58:43;99124.59;;;10.34;100.00
7966;BME280;4028;43.272;26.932;2023-03-22T09:01:14;99121.13;;;10.34;100.00
7966;BME280;4028;43.272;26.932;2023-03-22T09:03:40;99121.25;;;10.32;100.00
7966;BME280;4028;43.272;26.932;2023-03-22T09:06:06;99121.94;;;10.34;100.00
7966;BME280;4028;43.272;26.932;2023-03-22T09:08:32;99128.03;;;10.45;100.00
7966;BME280;4028;43.272;26.932;2023-03-22T09:10:58;99125.09;;;10.48;100.00
7966;BME280;4028;43.272;26.932;2023-03-22T09:13:23;99127.16;;;10.54;100.00
7966;BME280;4028;43.272;26.932;2023-03-22T09:15:49;99119.38;;;10.52;100.00
7966;BME280;4028;43.272;26.932;2023-03-22T09:18:16;99115.63;;;10.55;100.00
7966;BME280;4028;43.272;26.932;2023-03-22T09:20:43;99119.34;;;10.62;100.00
7966;BME280;4028;43.272;26.932;2023-03-22T09:23:08;99120.44;;;10.69;100.00
7966;BME280;4028;43.272;26.932;2023-03-22T09:25:34;99122.22;;;10.78;100.00
7966;BME280;4028;43.272;26.932;2023-03-22T09:28:00;99126.69;;;10.68;100.00
7966;BME280;4028;43.272;26.932;2023-03-22T09:30:25;99121.41;;;10.68;100.00
7966;BME280;4028;43.272;26.932;2023-03-22T09:32:51;99121.22;;;10.79;100.00
7966;BME280;4028;43.272;26.932;2023-03-22T09:35:17;99119.28;;;10.81;100.00
7966;BME280;4028;43.272;26.932;2023-03-22T09:37:42;99115.50;;;10.84;100.00
7966;BME280;4028;43.272;26.932;2023-03-22T09:40:10;99118.34;;;10.73;100.00
7966;BME280;4028;43.272;26.932;2023-03-22T09:42:39;99115.41;;;10.76;100.00
7966;BME280;4028;43.272;26.932;2023-03-22T09:45:12;99113.72;;;10.75;100.00
7966;BME280;4028;43.272;26.932;2023-03-22T09:47:43;99118.19;;;10.74;100.00
7966;BME280;4028;43.272;26.932;2023-03-22T09:50:15;99115.13;;;10.69;100.00
7966;BME280;4028;43.272;26.932;2023-03-22T09:52:43;99113.59;;;10.76;100.00
7966;BME280;4028;43.272;26.932;2023-03-22T09:55:40;99117.91;;;10.77;100.00
7966;BME280;4028;43.272;26.932;2023-03-22T10:01:02;99126.88;;;10.57;100.00
7966;BME280;4028;43.272;26.932;2023-03-22T10:06:22;99126.31;;;10.63;100.00
7966;BME280;4028;43.272;26.932;2023-03-22T10:11:48;99129.94;;;10.62;100.00
7966;BME280;4028;43.272;26.932;2023-03-22T10:14:22;99135.34;;;10.70;100.00
7966;BME280;4028;43.272;26.932;2023-03-22T10:16:51;99136.88;;;10.63;100.00
7966;BME280;4028;43.272;26.932;2023-03-22T10:19:23;99132.84;;;10.59;100.00
7966;BME280;4028;43.272;26.932;2023-03-22T10:21:52;99135.66;;;10.57;100.00
7966;BME280;4028;43.272;26.932;2023-03-22T10:24:28;99129.06;;;10.71;100.00
7966;BME280;4028;43.272;26.932;2023-03-22T10:26:55;99134.59;;;10.78;100.00
7966;BME280;4028;43.272;26.932;2023-03-22T10:29:41;99126.78;;;10.86;100.00
7966;BME280;4028;43.272;26.932;2023-03-22T10:32:15;99124.56;;;10.81;100.00
7966;BME280;4028;43.272;26.932;2023-03-22T10:34:42;99123.91;;;10.70;100.00
7966;BME280;4028;43.272;26.932;2023-03-22T10:37:17;99124.75;;;10.70;100.00
7966;BME280;4028;43.272;26.932;2023-03-22T10:39:48;99123.78;;;10.71;100.00
7966;BME280;4028;43.272;26.932;2023-03-22T10:42:26;99124.75;;;10.70;100.00
7966;BME280;4028;43.272;26.932;2023-03-22T10:44:59;99130.53;;;10.56;100.00
7966;BME280;4028;43.272;26.932;2023-03-22T10:47:35;99127.16;;;10.54;100.00
7966;BME280;4028;43.272;26.932;2023-03-22T10:50:04;99122.19;;;10.51;100.00
7966;BME280;4028;43.272;26.932;2023-03-22T10:55:11;99119.78;;;10.57;100.00
7966;BME280;4028;43.272;26.932;2023-03-22T10:57:37;99110.06;;;10.48;100.00
7966;BME280;4028;43.272;26.932;2023-03-22T11:00:05;99119.09;;;10.55;100.00
7966;BME280;4028;43.272;26.932;2023-03-22T11:02:45;99114.00;;;10.44;100.00
7966;BME280;4028;43.272;26.932;2023-03-22T11:05:21;99115.66;;;10.45;100.00
7966;BME280;4028;43.272;26.932;2023-03-22T11:07:47;99105.19;;;10.44;100.00
7966;BME280;4028;43.272;26.932;2023-03-22T11:10:28;99108.22;;;10.58;100.00
7966;BME280;4028;43.272;26.932;2023-03-22T11:13:09;99102.09;;;10.58;100.00
7966;BME280;4028;43.272;26.932;2023-03-22T11:15:42;99106.66;;;10.65;100.00
7966;BME280;4028;43.272;26.932;2023-03-22T11:18:15;99102.84;;;10.78;100.00
7966;BME280;4028;43.272;26.932;2023-03-22T11:20:55;99109.41;;;10.74;100.00
7966;BME280;4028;43.272;26.932;2023-03-22T11:23:21;99107.16;;;10.79;100.00
7966;BME280;4028;43.272;26.932;2023-03-22T11:25:48;99103.41;;;10.81;100.00
7966;BME280;4028;43.272;26.932;2023-03-22T11:28:28;99096.06;;;10.75;100.00
7966;BME280;4028;43.272;26.932;2023-03-22T11:33:25;99109.72;;;10.71;100.00
7966;BME280;4028;43.272;26.932;2023-03-22T11:36:15;99097.03;;;10.64;100.00
7966;BME280;4028;43.272;26.932;2023-03-22T11:38:41;99095.53;;;10.62;100.00
7966;BME280;4028;43.272;26.932;2023-03-22T11:43:44;99094.66;;;10.71;100.00
7966;BME280;4028;43.272;26.932;2023-03-22T11:46:14;99093.75;;;10.53;100.00
7966;BME280;4028;43.272;26.932;2023-03-22T11:48:42;99098.56;;;10.39;100.00
7966;BME280;4028;43.272;26.932;2023-03-22T11:51:12;99098.38;;;10.51;100.00
7966;BME280;4028;43.272;26.932;2023-03-22T11:53:41;99083.19;;;10.43;100.00
7966;BME280;4028;43.272;26.932;2023-03-22T11:56:10;99096.72;;;10.40;100.00
7966;BME280;4028;43.272;26.932;2023-03-22T11:58:43;99099.53;;;10.19;100.00
7966;BME280;4028;43.272;26.932;2023-03-22T12:01:16;99096.91;;;10.19;100.00
7966;BME280;4028;43.272;26.932;2023-03-22T12:03:45;99101.63;;;10.25;100.00
7966;BME280;4028;43.272;26.932;2023-03-22T12:06:26;99098.00;;;10.26;100.00
7966;BME280;4028;43.272;26.932;2023-03-22T12:08:59;99095.34;;;10.16;100.00
7966;BME280;4028;43.272;26.932;2023-03-22T12:14:04;99091.19;;;10.14;100.00
7966;BME280;4028;43.272;26.932;2023-03-22T12:16:40;99093.31;;;10.01;100.00
7966;BME280;4028;43.272;26.932;2023-03-22T12:22:12;99090.09;;;10.07;100.00
7966;BME280;4028;43.272;26.932;2023-03-22T12:24:38;99095.25;;;10.08;100.00
7966;BME280;4028;43.272;26.932;2023-03-22T12:27:32;99090.91;;;10.17;100.00
7966;BME280;4028;43.272;26.932;2023-03-22T12:30:13;99090.06;;;10.16;100.00
7966;BME280;4028;43.272;26.932;2023-03-22T12:32:45;99093.53;;;10.17;100.00
7966;BME280;4028;43.272;26.932;2023-03-22T12:35:17;99091.22;;;10.24;100.00
7966;BME280;4028;43.272;26.932;2023-03-22T12:37:51;99090.47;;;10.22;100.00
7966;BME280;4028;43.272;26.932;2023-03-22T12:40:31;99086.59;;;10.06;100.00
7966;BME280;4028;43.272;26.932;2023-03-22T12:43:16;99082.72;;;10.01;100.00
7966;BME280;4028;43.272;26.932;2023-03-22T12:45:48;99081.06;;;10.00;100.00
7966;BME280;4028;43.272;26.932;2023-03-22T12:48:40;99082.47;;;10.04;100.00
7966;BME280;4028;43.272;26.932;2023-03-22T12:51:09;99079.22;;;10.10;100.00
7966;BME280;4028;43.272;26.932;2023-03-22T12:53:40;99084.34;;;10.21;100.00
7966;BME280;4028;43.272;26.932;2023-03-22T12:56:14;99092.97;;;10.33;100.00
7966;BME280;4028;43.272;26.932;2023-03-22T12:58:45;99080.47;;;10.35;100.00
7966;BME280;4028;43.272;26.932;2023-03-22T13:01:30;99090.06;;;10.36;100.00
7966;BME280;4028;43.272;26.932;2023-03-22T13:03:58;99086.97;;;10.40;100.00
7966;BME280;4028;43.272;26.932;2023-03-22T13:12:31;99087.66;;;10.43;100.00
7966;BME280;4028;43.272;26.932;2023-03-22T13:17:41;99083.22;;;10.33;100.00
7966;BME280;4028;43.272;26.932;2023-03-22T13:32:53;99081.66;;;10.50;100.00
7966;BME280;4028;43.272;26.932;2023-03-22T13:35:23;99077.91;;;10.43;100.00
7966;BME280;4028;43.272;26.932;2023-03-22T13:37:50;99080.97;;;10.38;100.00
7966;BME280;4028;43.272;26.932;2023-03-22T13:40:35;99079.03;;;10.40;100.00
7966;BME280;4028;43.272;26.932;2023-03-22T13:43:10;99084.31;;;10.50;100.00
7966;BME280;4028;43.272;26.932;2023-03-22T13:45:57;99077.72;;;10.54;100.00
7966;BME280;4028;43.272;26.932;2023-03-22T13:59:28;99075.75;;;10.29;100.00
7966;BME280;4028;43.272;26.932;2023-03-22T14:09:55;99073.78;;;10.31;100.00
7966;BME280;4028;43.272;26.932;2023-03-22T14:12:30;99073.63;;;10.32;100.00
7966;BME280;4028;43.272;26.932;2023-03-22T14:15:00;99066.00;;;10.29;100.00
7966;BME280;4028;43.272;26.932;2023-03-22T14:17:38;99059.72;;;10.30;100.00
7966;BME280;4028;43.272;26.932;2023-03-22T14:20:06;99062.94;;;10.34;100.00
7966;BME280;4028;43.272;26.932;2023-03-22T14:22:41;99068.03;;;10.45;100.00
7966;BME280;4028;43.272;26.932;2023-03-22T14:25:15;99067.06;;;10.46;100.00
7966;BME280;4028;43.272;26.932;2023-03-22T14:27:42;99068.31;;;10.42;100.00
7966;BME280;4028;43.272;26.932;2023-03-22T14:30:27;99065.13;;;10.38;100.00
7966;BME280;4028;43.272;26.932;2023-03-22T14:32:55;99068.47;;;10.40;100.00
7966;BME280;4028;43.272;26.932;2023-03-22T14:35:38;99065.56;;;10.34;100.00
7966;BME280;4028;43.272;26.932;2023-03-22T14:38:13;99075.00;;;10.36;100.00
7966;BME280;4028;43.272;26.932;2023-03-22T14:40:40;99064.84;;;10.41;100.00
7966;BME280;4028;43.272;26.932;2023-03-22T14:43:21;99070.97;;;10.42;100.00
7966;BME280;4028;43.272;26.932;2023-03-22T14:45:58;99068.16;;;10.44;100.00
7966;BME280;4028;43.272;26.932;2023-03-22T14:48:30;99070.97;;;10.42;100.00
7966;BME280;4028;43.272;26.932;2023-03-22T14:50:57;99074.59;;;10.41;100.00
7966;BME280;4028;43.272;26.932;2023-03-22T14:53:32;99076.28;;;10.32;100.00
7966;BME280;4028;43.272;26.932;2023-03-22T14:55:58;99072.81;;;10.32;100.00
7966;BME280;4028;43.272;26.932;2023-03-22T14:58:32;99075.16;;;10.35;100.00
7966;BME280;4028;43.272;26.932;2023-03-22T15:01:06;99071.50;;;10.46;100.00
7966;BME280;4028;43.272;26.932;2023-03-22T15:03:33;99072.34;;;10.46;100.00